Upstream stations:
Downstream station:
SHEF ID: AMCK1 NEOSHO R NR AMERICUS, KS
STATION TYPE:
Regulating: Stage = 27.50, Flow = 14160
PRECIP STAGE RIV-FLOW BAT-LOAD
in ft cfs volt
Ccp-Rev Ccp-Rev Ccp-Rev Ccp-Rev
(US/Central)
04/01 00:00 0.00 4.61 288 12.83
04/01 01:00 0.00 4.58 282 12.77
04/01 02:00 0.00 4.56 278 12.77
04/01 03:00 0.00 4.54 274 12.71
04/01 04:00 0.00 4.51 268 12.71
04/01 05:00 0.00 4.50 266 12.65
04/01 06:00 0.00 4.47 260 12.65
04/01 07:00 0.00 4.45 256 12.65
04/01 08:00 0.00 4.43 252 12.65
04/01 09:00 0.00 4.39 245 12.65
04/01 10:00 0.00 4.38 243 12.71
04/01 11:00 0.00 4.36 239 12.83
04/01 12:00 0.00 4.35 237 12.95
04/01 13:00 0.00 4.32 232 13.07
04/01 14:00 0.00 4.32 232 13.53
04/01 15:00 0.00 4.30 228 13.83
04/01 16:00 0.00 4.29 226 13.59
04/01 17:00 0.00 4.27 222 13.42
04/01 18:00 0.00 4.26 221 13.12
04/01 19:00 0.00 4.25 219 13.07
04/01 20:00 0.00 4.24 217 12.95
04/01 21:00 0.00 4.23 215 12.95
04/01 22:00 0.00 4.22 213 12.89
04/01 23:00 0.00 4.22 213 12.89